Du Quoin, Illinois
Current Conditions -  °F | °C
As of 6:52 PM on Friday 28 Nov 2014 (Local Time) from KMDH Reporting Station
Clear Clear  
Wind Chill: 36°   Ceiling: Unl
Heat Index: 43°   Visibility: 10mi
Dew Point: 28°   Wind: 14mph
Humidity: 56%   Direction: 180°S
Pressure: 30.02"   Gusts: NA
Location:  38.01°N, 89.24°W
Report Text: KMDH 290052Z AUTO 18012KT 10SM CLR 06/M02 A3002 RMK AO2 SLP169 T00611022
Loading
Personal Weather Stations






























Interactive Weather Map New forecast layout! Learn more

10-Day Weather Forecast

Advertisements
Track Severe Weather on mobile